< < Back
Terminal Aerodrome Forecast


Current Version              Previous Versions:   1  2  3  4  5  6  7  8  9  

Terminal Aerodrome Forecast

231
FTUS44 KBMX 301737
TAFANB
TAF
KANB 301737Z 3018/3118 31007KT P6SM SCT050
     FM310200 VRB02KT P6SM SKC
      TEMPO 3110/3113 5SM BR=

Latest METAR

904
SAUS70 KWBC 310000 RRF
MTRANB
METAR KANB 302353Z AUTO 25007KT 10SM CLR 28/17 A2993 RMK AO2 SLP128
T02830172 10333 20283 55006


USA.gov is the U.S. government's official web portal to all federal, state and local government web resources and services.